Des Moines International Airport
KDSM : rendu visible

Aérodrome :











RETROUVEZ-NOUS SUR...

 
LOGIN :

S'inscrire | Disclaimer

   EN    FR    IT 

 









Légende :    VFR   VFR Marginal   IFR   IFR Intensif   IFR Très Intensif
Visi : 
Plafond : 
>= 8 km
>= 3000ft
5 à 8 km
1000 à 3000 ft
1500m à 5 km
500 à 1000 ft
800 à 1500m
200 à 500 ft
< 800m
< 200 ft
Symboles :   Orages  Brouillard  Fortes neiges  Fortes précipitations  Vent > 20 kt






- Altitude de l'aérodrome : 958 ft
- Code IATA : DSM


KDSM - Des Moines International

DERNIER METAR :
  • 281254Z 32014KT 3SM -RA BR BKN005 BKN042 19/19 A2987 RMK AO2 SLP108 P0011 T01940189

METARs EXPIRÉS :
  • 281154Z 32005KT 10SM -RA FEW007 SCT010 OVC080 20/19 A2985 RMK AO2 SLP103 P0008 60008 70008 T02000194 10217 20194 53007
  • 281054Z 28003KT 6SM -RA BR SCT019 BKN045 OVC055 20/19 A2985 RMK AO2 RAB49 SLP101 P0000 T02000189

TAF KDSM
Valide du 28 à 12h jusqu'au 29 à 12h UTC


281136Z 2812/2912 35006KT 6SM -SHRA VCTS BKN020CB OVC050
FM281500 36010G18KT P6SM VCSH OVC060
FM281800 36012G21KT P6SM BKN100
FM290100 34007KT P6SM FEW250
FIR KZMP / Amérique du Nord



MET'MAP, la Météo Aéronautique d'un coup d'oeil ! - Copyright ORBIFLY Décembre 2007 - Disclaimer

ORBIFLY MET'MAP TEAM :

Programmation & Développement : Alexandra Zaïnal
Sur une idée originale de : Baudouin d'Aumeries
Assistance à la programmation : Marc-Olivier Méhu
Soutien technique & logistique : Manuel Goepfert

Contact : metmap@orbifly.com




SOURCES & CREDITS :

   NOAA       Earth
Advisory